Time;durP1;ratioP1;P1;durP2;ratioP2;P2;SDS_P1;SDS_P2;PMS_P1;PMS_P2;Temp;Humidity;BMP_temperature;BMP_pressure;BME280_temperature;BME280_humidity;BME280_pressure;Samples;Min_cycle;Max_cycle;Signal;HPM_P1;HPM_P2
2022/07/21 00:01:10;;;;;;;1.50;1.40;;;26.80;73.30;;;;;;5071794;28;20209;-85
2022/07/21 00:03:36;;;;;;;2.00;1.90;;;26.70;73.60;;;;;;5071519;28;20520;-85
2022/07/21 00:06:02;;;;;;;2.00;1.90;;;26.70;73.90;;;;;;5071471;28;21113;-85
2022/07/21 00:08:27;;;;;;;1.67;1.50;;;26.60;73.90;;;;;;5073054;28;20278;-85
2022/07/21 00:10:53;;;;;;;2.83;2.63;;;26.50;74.60;;;;;;5072198;28;20942;-85
2022/07/21 00:13:19;;;;;;;2.60;2.00;;;26.50;74.50;;;;;;5071925;28;20198;-85
2022/07/21 00:15:45;;;;;;;1.57;1.53;;;26.40;74.50;;;;;;5071784;28;20187;-85
2022/07/21 00:18:11;;;;;;;3.27;2.37;;;26.30;74.90;;;;;;5073006;28;20191;-84
2022/07/21 00:20:36;;;;;;;2.63;2.47;;;26.20;75.20;;;;;;5071762;28;20500;-85
2022/07/21 00:23:02;;;;;;;2.63;2.43;;;26.10;75.60;;;;;;5073003;28;20190;-85
2022/07/21 00:25:29;;;;;;;1.97;1.87;;;26.00;75.60;;;;;;5071298;28;20695;-85
2022/07/21 00:27:54;;;;;;;2.50;2.17;;;25.90;75.40;;;;;;5071244;28;20437;-85
2022/07/21 00:30:21;;;;;;;3.00;1.70;;;25.90;75.60;;;;;;5071371;28;20421;-85
2022/07/21 00:32:46;;;;;;;1.70;1.60;;;25.90;75.70;;;;;;5072393;28;20261;-85
2022/07/21 00:35:13;;;;;;;2.00;1.90;;;25.80;75.50;;;;;;5070913;28;20453;-84
2022/07/21 00:37:39;;;;;;;3.37;1.63;;;25.80;75.60;;;;;;5070672;28;20195;-85
2022/07/21 00:40:07;;;;;;;16.53;2.87;;;25.90;75.80;;;;;;5070899;28;20413;-85
2022/07/21 00:42:32;;;;;;;6.07;2.40;;;25.90;76.20;;;;;;5070573;28;20444;-85
2022/07/21 00:44:59;;;;;;;5.93;2.47;;;25.90;76.50;;;;;;5070435;28;20452;-86
2022/07/21 00:47:27;;;;;;;4.67;3.53;;;25.90;76.80;;;;;;5070721;28;20710;-85
2022/07/21 00:49:55;;;;;;;4.77;2.93;;;26.00;77.50;;;;;;5070627;28;20420;-85
2022/07/21 00:52:20;;;;;;;4.50;3.53;;;26.10;78.20;;;;;;5070208;28;20492;-86
2022/07/21 00:54:47;;;;;;;9.90;4.33;;;26.10;79.00;;;;;;5057268;28;20972;-86
2022/07/21 00:57:14;;;;;;;25.20;4.40;;;26.20;78.70;;;;;;5071312;28;20163;-86
2022/07/21 00:59:40;;;;;;;5.80;3.83;;;26.20;78.50;;;;;;5071640;28;20446;-86
2022/07/21 01:02:07;;;;;;;3.37;3.17;;;26.20;79.00;;;;;;5062474;28;20418;-85
2022/07/21 01:04:33;;;;;;;9.90;2.60;;;26.30;79.50;;;;;;5069037;28;20984;-85
2022/07/21 01:07:01;;;;;;;4.30;3.13;;;26.20;80.40;;;;;;5061159;28;20422;-85
2022/07/21 01:09:27;;;;;;;4.53;3.80;;;26.20;80.70;;;;;;5065882;28;20838;-85
2022/07/21 01:11:53;;;;;;;6.87;4.90;;;26.20;81.00;;;;;;5070470;28;20420;-85
2022/07/21 01:14:19;;;;;;;4.70;3.70;;;26.20;81.30;;;;;;5069985;28;20299;-85
2022/07/21 01:16:44;;;;;;;4.17;3.80;;;26.20;81.60;;;;;;5072184;28;20175;-86
2022/07/21 01:19:10;;;;;;;8.70;3.57;;;26.20;81.80;;;;;;5070102;28;20290;-86
2022/07/21 01:21:41;;;;;;;3.80;3.40;;;26.20;81.80;;;;;;5069782;28;20251;-86
2022/07/21 01:24:07;;;;;;;4.57;3.33;;;26.20;81.90;;;;;;5070150;28;20236;-86
2022/07/21 01:26:41;;;;;;;10.20;4.50;;;26.10;82.00;;;;;;5057450;28;20422;-85
2022/07/21 01:29:08;;;;;;;5.10;3.00;;;26.10;82.40;;;;;;5069842;28;20437;-85
2022/07/21 01:31:34;;;;;;;4.63;4.13;;;26.10;82.60;;;;;;5069947;28;20475;-85
2022/07/21 01:34:00;;;;;;;4.70;4.40;;;26.00;82.80;;;;;;5069814;28;20418;-84
2022/07/21 01:36:25;;;;;;;8.23;4.07;;;26.00;83.00;;;;;;5051200;28;20431;-85
2022/07/21 01:41:36;;;;;;;5.33;4.17;;;25.90;83.10;;;;;;5071091;28;20420;-85
2022/07/21 01:44:08;;;;;;;4.03;3.10;;;25.90;83.40;;;;;;5062276;28;20434;-85
2022/07/21 01:46:38;;;;;;;4.90;3.17;;;25.80;83.50;;;;;;5063377;28;20229;-85
2022/07/21 01:49:05;;;;;;;4.53;3.20;;;25.80;83.60;;;;;;5058859;28;20449;-85
2022/07/21 01:51:30;;;;;;;7.80;3.60;;;25.70;83.80;;;;;;5069977;28;20469;-85
2022/07/21 01:53:56;;;;;;;3.80;2.80;;;25.70;84.10;;;;;;5060101;28;20511;-84
2022/07/21 01:56:24;;;;;;;7.60;3.50;;;25.60;84.10;;;;;;5065079;28;20174;-85
2022/07/21 01:58:52;;;;;;;4.00;3.20;;;25.60;84.10;;;;;;5061540;28;20735;-85
2022/07/21 02:01:18;;;;;;;6.20;3.10;;;25.60;84.20;;;;;;5068243;28;21076;-86
2022/07/21 02:03:45;;;;;;;7.67;4.07;;;25.50;84.30;;;;;;5069331;28;20456;-84
2022/07/21 02:06:12;;;;;;;7.20;3.20;;;25.50;84.30;;;;;;5069782;28;20838;-86
2022/07/21 02:08:38;;;;;;;5.60;5.00;;;25.50;84.20;;;;;;5069522;28;20981;-84
2022/07/21 02:11:05;;;;;;;10.13;5.50;;;25.50;84.10;;;;;;5069077;28;20949;-85
2022/07/21 02:13:30;;;;;;;3.03;2.90;;;25.50;84.20;;;;;;5068860;28;21080;-85
2022/07/21 02:15:56;;;;;;;9.43;3.10;;;25.40;84.20;;;;;;5069318;28;20465;-85
2022/07/21 02:18:21;;;;;;;5.70;3.70;;;25.40;84.20;;;;;;5068757;28;20289;-85
2022/07/21 02:20:47;;;;;;;5.03;3.20;;;25.30;84.20;;;;;;5055230;28;20579;-85
2022/07/21 02:23:14;;;;;;;3.33;2.80;;;25.30;84.00;;;;;;5062613;28;20179;-85
2022/07/21 02:25:40;;;;;;;5.00;3.63;;;25.30;84.10;;;;;;5068870;28;20198;-85
2022/07/21 02:28:05;;;;;;;4.73;3.47;;;25.30;84.10;;;;;;5068779;28;20449;-84
2022/07/21 02:30:31;;;;;;;6.50;3.87;;;25.20;84.00;;;;;;5068923;28;20182;-85
2022/07/21 02:32:56;;;;;;;6.00;4.30;;;25.20;84.00;;;;;;5068813;28;20193;-85
2022/07/21 02:35:22;;;;;;;4.27;3.37;;;25.20;84.00;;;;;;5068493;28;20199;-85
2022/07/21 02:37:48;;;;;;;7.33;3.70;;;25.10;84.00;;;;;;5055808;28;20199;-85
2022/07/21 02:40:13;;;;;;;6.83;3.43;;;25.10;83.90;;;;;;5068381;28;20224;-85
2022/07/21 02:42:39;;;;;;;3.33;2.47;;;25.10;83.90;;;;;;5055424;28;20459;-85
2022/07/21 02:45:06;;;;;;;3.10;2.73;;;25.00;84.00;;;;;;5068829;28;20240;-85
2022/07/21 02:47:32;;;;;;;3.57;2.37;;;25.00;84.00;;;;;;5068058;28;20183;-85
2022/07/21 02:49:57;;;;;;;5.73;3.20;;;25.00;84.00;;;;;;5068041;28;20920;-85
2022/07/21 02:52:23;;;;;;;8.60;3.27;;;24.90;84.00;;;;;;5068619;28;20226;-85
2022/07/21 02:54:48;;;;;;;3.53;3.33;;;24.90;84.00;;;;;;5068437;28;20272;-85
2022/07/21 02:57:14;;;;;;;3.07;2.77;;;24.90;83.80;;;;;;5069067;28;20509;-85
2022/07/21 02:59:40;;;;;;;3.53;3.33;;;24.90;83.90;;;;;;5067671;28;20214;-85
2022/07/21 03:02:05;;;;;;;3.13;2.47;;;24.90;84.00;;;;;;5055865;28;20179;-85
2022/07/21 03:04:31;;;;;;;15.90;3.50;;;24.90;83.90;;;;;;5072213;28;20370;-85
2022/07/21 03:06:56;;;;;;;3.27;3.10;;;24.90;83.80;;;;;;5071865;28;20194;-85
2022/07/21 03:09:22;;;;;;;5.73;2.77;;;24.90;83.70;;;;;;5072582;28;20223;-85
2022/07/21 03:11:47;;;;;;;4.47;3.53;;;24.80;83.60;;;;;;5071900;28;20183;-85
2022/07/21 03:14:13;;;;;;;2.53;2.33;;;24.80;83.70;;;;;;5072345;28;20195;-85
2022/07/21 03:16:39;;;;;;;10.37;3.77;;;24.70;83.80;;;;;;5074345;28;20198;-85
2022/07/21 03:19:04;;;;;;;3.40;2.80;;;24.70;83.70;;;;;;5071944;28;20661;-85
2022/07/21 03:21:30;;;;;;;4.23;2.87;;;24.60;83.90;;;;;;5072100;28;20562;-85
2022/07/21 03:23:55;;;;;;;2.67;2.30;;;24.60;83.90;;;;;;5072222;28;20187;-85
2022/07/21 03:26:21;;;;;;;4.57;2.47;;;24.60;83.80;;;;;;5072351;28;20657;-86
2022/07/21 03:28:46;;;;;;;2.53;2.33;;;24.60;83.80;;;;;;5071815;28;20199;-85
2022/07/21 03:31:12;;;;;;;2.83;1.83;;;24.60;83.70;;;;;;5072387;28;20183;-85
2022/07/21 03:33:38;;;;;;;3.17;2.10;;;24.50;83.80;;;;;;5071951;28;20179;-85
2022/07/21 03:36:04;;;;;;;3.17;3.00;;;24.50;83.70;;;;;;5071795;28;20226;-85
2022/07/21 03:38:29;;;;;;;4.60;2.80;;;24.40;83.80;;;;;;5072333;28;20195;-85
2022/07/21 03:40:55;;;;;;;3.50;3.07;;;24.40;83.80;;;;;;5070489;28;20405;-85
2022/07/21 03:43:20;;;;;;;5.07;3.47;;;24.40;83.70;;;;;;5061557;28;20171;-86
2022/07/21 03:45:46;;;;;;;3.10;2.73;;;24.30;83.80;;;;;;5072159;28;20279;-86
2022/07/21 03:48:12;;;;;;;2.87;2.53;;;24.30;83.80;;;;;;5071918;28;20219;-85
2022/07/21 03:50:39;;;;;;;3.30;2.93;;;24.30;83.80;;;;;;5071003;28;20263;-85
2022/07/21 03:53:06;;;;;;;5.63;3.07;;;24.30;83.90;;;;;;5073288;28;20168;-85
2022/07/21 03:55:32;;;;;;;3.73;3.53;;;24.30;83.90;;;;;;5071093;28;20461;-85
2022/07/21 03:58:00;;;;;;;2.70;2.50;;;24.30;83.70;;;;;;5064351;28;20457;-85
2022/07/21 04:00:27;;;;;;;4.10;2.47;;;24.30;83.90;;;;;;5071729;28;20417;-85
2022/07/21 04:02:53;;;;;;;4.30;3.07;;;24.30;84.00;;;;;;5071404;28;21229;-85
2022/07/21 04:05:20;;;;;;;6.47;2.70;;;24.40;83.90;;;;;;5071390;28;20421;-85
2022/07/21 04:07:49;;;;;;;22.10;3.10;;;24.40;84.50;;;;;;5064564;28;20437;-85
2022/07/21 04:10:21;;;;;;;3.50;2.83;;;24.40;84.60;;;;;;5070887;28;20969;-85
2022/07/21 04:12:47;;;;;;;3.63;2.67;;;24.40;84.60;;;;;;5065261;28;20510;-86
2022/07/21 04:15:13;;;;;;;8.50;1.90;;;24.40;84.90;;;;;;5061773;28;20536;-85
2022/07/21 04:17:40;;;;;;;4.80;2.87;;;24.40;85.00;;;;;;5063453;28;20512;-85
2022/07/21 04:20:07;;;;;;;3.47;3.00;;;24.40;85.30;;;;;;5056019;28;20257;-85
2022/07/21 04:22:33;;;;;;;4.10;2.10;;;24.40;85.40;;;;;;5063068;28;20442;-85
2022/07/21 04:24:59;;;;;;;3.93;2.47;;;24.40;85.60;;;;;;5065129;28;20414;-85
2022/07/21 04:27:25;;;;;;;3.30;2.40;;;24.50;85.70;;;;;;5062798;28;20433;-86
2022/07/21 04:29:51;;;;;;;2.13;1.70;;;24.50;86.30;;;;;;5056884;28;20270;-85
2022/07/21 04:32:16;;;;;;;3.93;2.07;;;24.50;86.10;;;;;;5057173;28;20512;-85
2022/07/21 04:34:42;;;;;;;5.30;2.37;;;24.50;86.30;;;;;;5058316;28;20237;-85
2022/07/21 04:37:08;;;;;;;5.67;2.40;;;24.50;86.40;;;;;;5056775;28;20179;-86
2022/07/21 04:39:33;;;;;;;2.63;2.07;;;24.50;86.40;;;;;;5059866;28;20210;-85
2022/07/21 04:41:59;;;;;;;3.00;2.27;;;24.50;86.60;;;;;;5055999;28;20637;-85
2022/07/21 04:44:24;;;;;;;2.63;2.47;;;24.50;86.60;;;;;;5061505;28;20211;-85
2022/07/21 04:46:50;;;;;;;2.90;1.93;;;24.60;86.50;;;;;;5059386;28;20203;-86
2022/07/21 04:49:16;;;;;;;2.23;2.07;;;24.60;86.60;;;;;;5070639;28;20633;-85
2022/07/21 04:51:41;;;;;;;1.53;1.40;;;24.70;86.50;;;;;;5063490;28;20679;-85
2022/07/21 04:54:07;;;;;;;2.60;2.17;;;24.70;86.40;;;;;;5053884;28;20753;-85
2022/07/21 04:56:34;;;;;;;1.77;1.50;;;24.80;86.30;;;;;;5069321;28;20258;-86
2022/07/21 04:59:00;;;;;;;2.20;2.00;;;24.80;86.10;;;;;;5068936;28;20199;-86
2022/07/21 05:01:26;;;;;;;2.17;2.00;;;24.90;86.70;;;;;;5069899;28;20413;-86
2022/07/21 05:03:52;;;;;;;2.53;2.23;;;24.90;86.30;;;;;;5070562;28;20451;-85
2022/07/21 05:06:19;;;;;;;2.90;2.73;;;24.90;86.20;;;;;;5060326;28;20188;-85
2022/07/21 05:08:44;;;;;;;1.97;1.47;;;25.00;86.20;;;;;;5069024;28;20201;-85
2022/07/21 05:11:10;;;;;;;11.00;2.40;;;25.00;86.30;;;;;;5070099;28;20512;-85
2022/07/21 05:13:35;;;;;;;5.30;3.00;;;25.00;86.30;;;;;;5070329;28;20182;-85
2022/07/21 05:16:01;;;;;;;3.70;2.53;;;25.10;86.90;;;;;;5070175;28;20199;-85
2022/07/21 05:18:26;;;;;;;2.80;2.10;;;25.10;87.50;;;;;;5069413;28;20565;-85
2022/07/21 05:20:52;;;;;;;3.23;2.67;;;25.10;87.10;;;;;;5070244;28;20236;-85
2022/07/21 05:23:17;;;;;;;2.37;2.17;;;25.20;86.80;;;;;;5056505;28;20180;-85
2022/07/21 05:25:43;;;;;;;5.63;2.50;;;25.20;86.60;;;;;;5061145;28;20195;-85
2022/07/21 05:28:08;;;;;;;3.30;2.50;;;25.20;86.30;;;;;;5065302;28;20213;-86
2022/07/21 05:30:35;;;;;;;1.80;1.70;;;25.20;85.70;;;;;;5062236;28;20220;-84
2022/07/21 05:33:00;;;;;;;1.60;1.50;;;25.20;85.60;;;;;;5066276;28;20270;-86
2022/07/21 05:35:26;;;;;;;3.53;1.80;;;25.20;85.60;;;;;;5069713;28;20915;-85
2022/07/21 05:37:52;;;;;;;7.03;1.67;;;25.20;85.40;;;;;;5069455;28;20194;-85
2022/07/21 05:40:17;;;;;;;2.23;2.03;;;25.20;85.20;;;;;;5069837;28;20185;-86
2022/07/21 05:42:43;;;;;;;2.40;2.23;;;25.20;85.20;;;;;;5069080;28;20181;-85
2022/07/21 05:45:09;;;;;;;1.77;1.60;;;25.20;85.10;;;;;;5069725;28;20179;-85
2022/07/21 05:47:35;;;;;;;2.17;2.00;;;25.20;85.40;;;;;;5070334;28;20644;-86
2022/07/21 05:50:01;;;;;;;2.73;2.37;;;25.20;85.40;;;;;;5069263;28;20441;-85
2022/07/21 05:52:26;;;;;;;2.07;1.93;;;25.20;85.70;;;;;;5061366;28;20755;-85
2022/07/21 05:54:52;;;;;;;4.20;3.10;;;25.20;86.20;;;;;;5064264;28;20207;-85
2022/07/21 05:57:18;;;;;;;3.73;2.10;;;25.20;87.20;;;;;;5069340;28;20220;-85
2022/07/21 05:59:45;;;;;;;3.67;3.20;;;25.10;88.80;;;;;;5069272;28;20258;-85
2022/07/21 06:02:10;;;;;;;1.50;1.40;;;25.10;90.30;;;;;;5069247;28;20425;-85
2022/07/21 06:04:36;;;;;;;2.17;1.73;;;25.10;90.90;;;;;;5069350;28;20425;-85
2022/07/21 06:07:02;;;;;;;2.37;2.10;;;25.10;91.10;;;;;;5065598;28;20632;-85
2022/07/21 06:09:27;;;;;;;2.17;1.50;;;25.10;91.40;;;;;;5068798;28;20234;-85
2022/07/21 06:11:53;;;;;;;4.50;2.03;;;25.10;90.50;;;;;;5068847;28;20214;-85
2022/07/21 06:14:19;;;;;;;2.20;2.00;;;25.00;90.10;;;;;;5068852;28;20194;-85
2022/07/21 06:16:44;;;;;;;4.30;2.30;;;25.00;90.10;;;;;;5053752;28;20183;-85
2022/07/21 06:19:10;;;;;;;3.40;1.90;;;25.00;90.10;;;;;;5049534;28;20208;-85
2022/07/21 06:21:36;;;;;;;2.47;2.13;;;25.00;90.20;;;;;;5065866;28;20168;-85
2022/07/21 06:24:01;;;;;;;2.80;2.47;;;24.90;89.50;;;;;;5069329;28;20522;-85
2022/07/21 06:26:27;;;;;;;3.23;1.90;;;24.90;89.80;;;;;;5067110;28;20298;-85
2022/07/21 06:28:53;;;;;;;2.80;1.60;;;24.90;89.30;;;;;;5058562;28;20206;-86
2022/07/21 06:31:19;;;;;;;4.63;2.40;;;24.90;89.20;;;;;;5070377;28;20309;-85
2022/07/21 06:33:44;;;;;;;2.43;2.23;;;24.90;89.00;;;;;;5068965;28;20859;-86
2022/07/21 06:36:10;;;;;;;4.50;2.70;;;24.90;89.00;;;;;;5069564;28;20195;-86
2022/07/21 06:38:36;;;;;;;3.10;1.73;;;25.00;89.20;;;;;;5075744;28;20233;-85
2022/07/21 06:41:01;;;;;;;3.07;2.80;;;25.10;88.60;;;;;;5075398;28;20175;-85
2022/07/21 06:43:27;;;;;;;3.37;2.23;;;25.20;88.80;;;;;;5075956;28;20334;-86
2022/07/21 06:45:53;;;;;;;1.73;1.20;;;25.20;87.90;;;;;;5076759;28;20186;-86
2022/07/21 06:48:19;;;;;;;2.80;2.70;;;25.30;88.10;;;;;;5075267;28;20289;-86
2022/07/21 06:50:44;;;;;;;3.20;2.47;;;25.40;87.70;;;;;;5062021;28;20551;-86
2022/07/21 06:53:10;;;;;;;1.70;1.60;;;25.50;87.40;;;;;;5075721;28;20189;-86
2022/07/21 06:55:36;;;;;;;2.10;1.90;;;25.50;87.10;;;;;;5075785;28;20202;-86
2022/07/21 06:58:16;;;;;;;2.57;2.37;;;25.50;86.50;;;;;;5075882;28;20248;-86
2022/07/21 07:00:42;;;;;;;2.70;1.53;;;25.50;86.80;;;;;;5076883;28;20181;-86
2022/07/21 07:03:08;;;;;;;1.93;1.83;;;25.50;86.70;;;;;;5075424;28;20429;-86
2022/07/21 07:05:34;;;;;;;1.20;1.10;;;25.60;86.60;;;;;;5075752;28;20435;-87
2022/07/21 07:08:00;;;;;;;3.50;1.80;;;25.80;86.50;;;;;;5077014;28;20270;-86
2022/07/21 07:10:26;;;;;;;2.73;2.53;;;25.80;86.60;;;;;;5075431;28;20975;-86
2022/07/21 07:12:52;;;;;;;1.60;1.50;;;25.90;86.50;;;;;;5075763;28;20183;-86
2022/07/21 07:15:17;;;;;;;2.40;2.10;;;26.00;86.40;;;;;;5075623;28;20282;-86
2022/07/21 07:17:43;;;;;;;2.33;1.77;;;26.10;85.90;;;;;;5075798;28;20594;-87
2022/07/21 07:20:09;;;;;;;4.67;1.90;;;26.10;85.20;;;;;;5075826;28;20177;-87
2022/07/21 07:22:35;;;;;;;1.50;1.40;;;26.10;85.70;;;;;;5074896;28;20179;-86
2022/07/21 07:25:01;;;;;;;2.37;2.07;;;26.10;85.90;;;;;;5075245;28;20405;-87
2022/07/21 07:27:26;;;;;;;3.47;2.93;;;26.10;86.00;;;;;;5074513;28;20190;-86
2022/07/21 07:29:52;;;;;;;1.80;1.70;;;26.20;86.10;;;;;;5061847;28;20660;-87
2022/07/21 07:32:17;;;;;;;1.80;1.80;;;26.30;86.10;;;;;;5076808;28;20536;-87
2022/07/21 07:34:43;;;;;;;2.67;1.97;;;26.50;85.50;;;;;;5075216;28;20202;-87
2022/07/21 07:37:08;;;;;;;1.97;1.67;;;26.60;85.20;;;;;;5075104;28;20221;-87
2022/07/21 07:39:36;;;;;;;1.87;1.83;;;26.60;84.40;;;;;;5075606;28;20198;-87
2022/07/21 07:42:02;;;;;;;3.67;1.80;;;26.60;84.20;;;;;;5074620;28;20228;-87
2022/07/21 07:44:27;;;;;;;2.30;2.10;;;26.50;84.90;;;;;;5074879;28;20417;-86
2022/07/21 07:46:53;;;;;;;2.40;2.03;;;26.60;84.60;;;;;;5076835;28;20273;-87
2022/07/21 07:49:19;;;;;;;3.00;1.93;;;26.60;85.10;;;;;;5073538;28;20294;-87
2022/07/21 07:51:44;;;;;;;2.30;2.03;;;26.70;84.60;;;;;;5071777;28;20520;-87
2022/07/21 07:54:10;;;;;;;1.70;1.37;;;26.80;84.80;;;;;;5058330;28;20187;-86
2022/07/21 07:56:35;;;;;;;2.20;1.80;;;26.90;83.70;;;;;;5062729;28;20180;-86
2022/07/21 07:59:01;;;;;;;2.27;2.07;;;26.90;83.70;;;;;;5069432;28;20683;-86
2022/07/21 08:01:27;;;;;;;3.83;1.90;;;27.00;83.90;;;;;;5061373;28;20183;-86
2022/07/21 08:03:52;;;;;;;2.00;1.43;;;27.10;83.70;;;;;;5069915;28;20313;-87
2022/07/21 08:06:18;;;;;;;2.40;1.73;;;27.20;83.90;;;;;;5071962;28;20175;-86
2022/07/21 08:08:43;;;;;;;1.80;1.70;;;27.30;83.10;;;;;;5072458;28;20542;-85
2022/07/21 08:11:10;;;;;;;8.43;2.60;;;27.40;83.00;;;;;;5061971;28;20225;-86
2022/07/21 08:13:36;;;;;;;2.17;1.97;;;27.60;82.40;;;;;;5069546;28;20214;-86
2022/07/21 08:16:01;;;;;;;2.80;2.37;;;27.70;82.60;;;;;;5072312;28;20547;-85
2022/07/21 08:18:27;;;;;;;1.60;1.50;;;27.70;82.30;;;;;;5059718;28;20187;-85
2022/07/21 08:20:53;;;;;;;4.07;2.73;;;27.70;82.10;;;;;;5071784;28;20182;-87
2022/07/21 08:23:19;;;;;;;1.90;1.80;;;27.70;81.90;;;;;;5059000;28;20175;-85
2022/07/21 08:25:44;;;;;;;2.90;2.70;;;27.70;82.70;;;;;;5072385;28;20186;-86
2022/07/21 08:28:11;;;;;;;4.83;3.13;;;27.60;82.40;;;;;;5071868;28;20708;-86
2022/07/21 08:30:37;;;;;;;2.30;2.07;;;27.50;82.40;;;;;;5072648;28;20178;-86
2022/07/21 08:33:03;;;;;;;7.40;2.67;;;27.40;82.70;;;;;;5071626;28;20414;-86
2022/07/21 08:35:29;;;;;;;2.37;2.17;;;27.20;83.00;;;;;;5061696;28;20454;-85
2022/07/21 08:37:59;;;;;;;2.73;2.13;;;27.00;83.30;;;;;;5068258;28;20935;-85
2022/07/21 08:40:26;;;;;;;2.63;2.47;;;26.90;83.80;;;;;;5071632;28;20417;-86
2022/07/21 08:42:53;;;;;;;2.90;2.47;;;26.80;84.40;;;;;;5071211;28;20792;-85
2022/07/21 08:45:19;;;;;;;2.40;2.20;;;26.70;84.80;;;;;;5071164;28;20880;-87
2022/07/21 08:47:45;;;;;;;7.37;2.77;;;26.70;85.00;;;;;;5071264;28;20464;-84
2022/07/21 08:50:11;;;;;;;2.37;1.80;;;26.60;85.30;;;;;;5070925;28;20425;-85
2022/07/21 08:52:37;;;;;;;7.80;2.87;;;26.50;85.60;;;;;;5070972;28;20211;-85
2022/07/21 08:55:03;;;;;;;1.97;1.50;;;26.50;85.70;;;;;;5070500;28;20489;-88
2022/07/21 08:57:28;;;;;;;3.93;2.20;;;26.30;86.10;;;;;;5070289;28;20214;-85
2022/07/21 08:59:54;;;;;;;2.87;2.30;;;26.20;86.60;;;;;;5069606;28;20931;-87
2022/07/21 09:02:34;;;;;;;3.37;2.70;;;26.00;86.80;;;;;;5066641;28;20176;-85
2022/07/21 09:05:00;;;;;;;4.23;2.67;;;25.90;87.20;;;;;;5063608;28;20171;-86
2022/07/21 09:07:26;;;;;;;2.50;1.77;;;25.80;87.30;;;;;;5064061;28;20425;-86
2022/07/21 09:10:02;;;;;;;13.63;3.00;;;25.70;87.60;;;;;;5063924;28;20418;-85
2022/07/21 09:12:28;;;;;;;3.83;3.00;;;25.60;88.00;;;;;;5059012;28;20385;-86
2022/07/21 09:15:18;;;;;;;2.80;2.60;;;25.50;88.70;;;;;;5057575;28;20548;-85
2022/07/21 09:17:44;;;;;;;3.37;2.17;;;25.40;89.30;;;;;;5070149;28;20445;-86
2022/07/21 09:20:24;;;;;;;2.63;2.43;;;25.30;89.40;;;;;;5056555;28;20429;-85
2022/07/21 09:23:13;;;;;;;3.43;3.20;;;25.20;89.70;;;;;;5057665;28;20433;-86
2022/07/21 09:25:44;;;;;;;3.00;2.37;;;25.10;89.80;;;;;;5060297;28;20736;-86
2022/07/21 09:28:10;;;;;;;3.60;2.63;;;25.10;90.00;;;;;;5069546;28;20440;-86
2022/07/21 09:30:52;;;;;;;3.50;2.83;;;25.10;90.20;;;;;;5069957;28;20417;-86
2022/07/21 09:33:20;;;;;;;3.90;2.70;;;25.10;91.10;;;;;;5069997;28;20175;-85
2022/07/21 09:36:01;;;;;;;3.00;2.57;;;25.10;92.70;;;;;;5069626;28;20479;-85
2022/07/21 09:38:28;;;;;;;2.57;2.33;;;25.00;93.00;;;;;;5058829;28;20425;-85
2022/07/21 09:40:56;;;;;;;3.97;3.70;;;24.80;93.70;;;;;;5056865;28;20781;-85
2022/07/21 09:43:42;;;;;;;3.00;2.80;;;24.60;94.80;;;;;;5069293;28;20413;-84
2022/07/21 09:46:14;;;;;;;3.67;2.90;;;24.50;94.70;;;;;;5069568;28;20425;-85
2022/07/21 09:48:42;;;;;;;5.07;3.40;;;24.40;95.60;;;;;;5069397;28;20433;-85
2022/07/21 09:51:37;;;;;;;5.30;3.93;;;24.40;96.60;;;;;;5069732;28;21024;-85
2022/07/21 09:54:11;;;;;;;6.87;3.23;;;24.30;97.30;;;;;;5067357;28;20501;-84
2022/07/21 09:56:39;;;;;;;3.60;3.40;;;24.20;97.30;;;;;;5061759;28;20764;-85
2022/07/21 09:59:07;;;;;;;5.90;3.67;;;24.00;97.30;;;;;;5068679;28;20483;-85
2022/07/21 10:01:33;;;;;;;6.63;3.60;;;23.90;97.30;;;;;;5057425;28;20936;-85
2022/07/21 10:03:59;;;;;;;3.97;2.77;;;23.80;97.30;;;;;;5067873;28;20416;-86
2022/07/21 10:06:28;;;;;;;5.00;3.20;;;23.70;97.30;;;;;;5068859;28;20441;-86
2022/07/21 10:08:56;;;;;;;3.53;3.20;;;23.70;97.30;;;;;;5068577;28;20449;-86
2022/07/21 10:11:22;;;;;;;10.97;5.07;;;23.70;97.30;;;;;;5068490;28;20421;-86
2022/07/21 10:13:48;;;;;;;7.53;3.90;;;23.70;97.30;;;;;;5068620;28;20428;-86
2022/07/21 10:16:14;;;;;;;4.73;3.23;;;23.60;97.30;;;;;;5068716;28;20461;-85
2022/07/21 10:18:54;;;;;;;9.23;3.63;;;23.50;97.30;;;;;;5067641;28;20688;-85
2022/07/21 10:21:48;;;;;;;3.40;2.97;;;23.50;97.30;;;;;;5068560;28;20925;-86
2022/07/21 10:24:14;;;;;;;4.73;3.77;;;23.50;97.30;;;;;;5064566;28;20425;-86
2022/07/21 10:26:59;;;;;;;4.70;3.40;;;23.50;97.30;;;;;;5068419;28;20782;-85
2022/07/21 10:29:46;;;;;;;5.63;2.67;;;23.60;97.30;;;;;;5068676;28;20465;-86
2022/07/21 10:32:13;;;;;;;6.53;3.83;;;23.60;97.30;;;;;;5068807;28;20417;-86
2022/07/21 10:34:39;;;;;;;8.00;4.33;;;23.70;97.30;;;;;;5068728;28;20449;-85
2022/07/21 10:37:04;;;;;;;4.80;4.50;;;23.80;97.30;;;;;;5069056;28;20462;-86
2022/07/21 10:39:33;;;;;;;7.40;3.67;;;23.80;97.30;;;;;;5068431;28;20191;-86
2022/07/21 10:42:00;;;;;;;4.77;3.27;;;23.90;97.30;;;;;;5069205;28;20221;-86
2022/07/21 10:44:31;;;;;;;6.07;4.30;;;24.00;97.30;;;;;;5068571;28;20448;-86
2022/07/21 10:47:16;;;;;;;5.60;3.13;;;24.10;97.30;;;;;;5068351;28;20440;-85
2022/07/21 10:49:54;;;;;;;7.40;4.47;;;24.10;97.30;;;;;;5057739;28;20429;-85
2022/07/21 10:52:35;;;;;;;2.93;2.60;;;24.20;97.30;;;;;;5068477;28;20460;-86
2022/07/21 10:55:13;;;;;;;3.40;2.87;;;24.30;97.30;;;;;;5069916;28;20484;-86
2022/07/21 10:57:44;;;;;;;6.67;4.90;;;24.40;97.30;;;;;;5068631;28;20429;-86
2022/07/21 11:00:16;;;;;;;2.77;2.30;;;24.40;97.30;;;;;;5069976;28;20930;-85
2022/07/21 11:02:42;;;;;;;5.53;3.30;;;24.40;97.30;;;;;;5061213;28;20731;-86
2022/07/21 11:05:08;;;;;;;4.67;3.93;;;24.40;97.30;;;;;;5063159;28;20722;-86
2022/07/21 11:08:11;;;;;;;5.37;3.67;;;24.50;97.30;;;;;;5068519;28;20422;-85
2022/07/21 11:10:52;;;;;;;3.27;3.07;;;24.60;97.30;;;;;;5061965;28;20183;-85
2022/07/21 11:13:21;;;;;;;5.50;3.30;;;24.70;97.30;;;;;;5063374;28;20953;-85
2022/07/21 11:15:53;;;;;;;7.17;3.43;;;24.80;97.30;;;;;;5059964;28;20454;-85
2022/07/21 11:18:23;;;;;;;5.97;3.57;;;24.90;97.30;;;;;;5064237;28;21692;-86
2022/07/21 11:21:10;;;;;;;2.70;2.50;;;25.00;97.30;;;;;;5068388;28;20501;-85
2022/07/21 11:23:44;;;;;;;4.23;2.43;;;25.30;97.30;;;;;;5070768;28;20414;-86
2022/07/21 11:26:12;;;;;;;3.30;3.10;;;25.50;97.30;;;;;;5072023;28;20479;-85
2022/07/21 11:28:38;;;;;;;5.10;3.03;;;25.60;97.10;;;;;;5071996;28;20437;-85
2022/07/21 11:31:12;;;;;;;5.40;3.63;;;25.80;95.50;;;;;;5073471;28;20502;-86
2022/07/21 11:33:39;;;;;;;3.30;2.70;;;25.80;95.40;;;;;;5072700;28;20428;-86
2022/07/21 11:36:05;;;;;;;5.53;3.13;;;25.90;95.40;;;;;;5071887;28;20556;-86
2022/07/21 11:38:31;;;;;;;5.67;3.30;;;25.90;96.10;;;;;;5071719;28;20429;-86
2022/07/21 11:41:19;;;;;;;5.43;3.70;;;25.90;96.00;;;;;;5071862;28;20413;-86
2022/07/21 11:43:45;;;;;;;4.70;4.07;;;25.90;95.30;;;;;;5072657;28;20406;-86
2022/07/21 11:46:12;;;;;;;4.40;2.57;;;26.00;95.10;;;;;;5071977;28;20425;-85
2022/07/21 11:48:37;;;;;;;3.37;2.33;;;26.00;95.50;;;;;;5072236;28;20437;-85
2022/07/21 11:51:03;;;;;;;4.87;3.77;;;26.10;94.70;;;;;;5071582;28;20465;-85
2022/07/21 11:53:30;;;;;;;4.53;3.07;;;26.10;94.60;;;;;;5059438;28;20187;-87
2022/07/21 11:55:56;;;;;;;6.10;2.23;;;26.10;94.50;;;;;;5070615;28;20477;-85
2022/07/21 11:58:21;;;;;;;6.37;4.47;;;26.00;94.60;;;;;;5071681;28;20506;-85
2022/07/21 12:00:47;;;;;;;5.53;3.20;;;26.00;94.40;;;;;;5071529;28;20224;-85
2022/07/21 12:03:14;;;;;;;9.23;5.60;;;26.10;95.40;;;;;;5060250;28;20196;-85
2022/07/21 12:05:41;;;;;;;5.20;3.53;;;26.10;95.40;;;;;;5070274;28;20429;-85
2022/07/21 12:08:07;;;;;;;4.30;3.53;;;26.10;95.60;;;;;;5071235;28;20456;-85
2022/07/21 12:10:33;;;;;;;5.50;4.10;;;26.10;95.60;;;;;;5065246;28;20513;-85
2022/07/21 12:13:04;;;;;;;5.57;3.47;;;26.10;95.60;;;;;;5063627;28;20219;-85
2022/07/21 12:15:36;;;;;;;4.13;2.43;;;26.00;95.30;;;;;;5071364;28;20205;-86
2022/07/21 12:18:19;;;;;;;10.30;4.53;;;26.00;95.40;;;;;;5071779;28;20805;-85
2022/07/21 12:20:46;;;;;;;4.87;3.03;;;26.00;95.50;;;;;;5072981;28;20413;-85
2022/07/21 12:23:31;;;;;;;4.37;4.10;;;26.00;95.40;;;;;;5070931;28;20429;-85
2022/07/21 12:26:00;;;;;;;4.70;3.60;;;26.10;95.70;;;;;;5073520;28;21215;-85
2022/07/21 12:28:46;;;;;;;11.17;3.47;;;26.40;95.90;;;;;;5067906;28;20434;-85
2022/07/21 12:31:16;;;;;;;3.83;3.13;;;26.80;95.30;;;;;;5066236;28;20774;-85
2022/07/21 12:33:42;;;;;;;3.13;2.97;;;27.10;94.10;;;;;;5062098;28;20417;-84
2022/07/21 12:36:09;;;;;;;3.60;3.03;;;27.40;93.40;;;;;;5058906;28;20489;-85
2022/07/21 12:38:44;;;;;;;5.00;3.63;;;27.70;92.60;;;;;;5061864;28;20465;-85
2022/07/21 12:41:12;;;;;;;3.73;3.10;;;27.90;91.80;;;;;;5068955;28;20440;-85
2022/07/21 12:43:37;;;;;;;3.60;3.00;;;28.00;91.00;;;;;;5071989;28;20931;-85
2022/07/21 12:46:18;;;;;;;5.03;4.60;;;28.10;90.20;;;;;;5070666;28;20413;-86
2022/07/21 12:48:44;;;;;;;11.90;5.40;;;28.20;91.10;;;;;;5071589;28;20664;-85
2022/07/21 12:51:20;;;;;;;5.97;3.40;;;28.40;90.30;;;;;;5071100;28;20491;-85